sensor_id;sensor_type;location;lat;lon;timestamp;P1;durP1;ratioP1;P2;durP2;ratioP2
14474;SDS011;7323;50.848;4.334;2022-12-20T00:01:25;3.67;;;2.17;;
14474;SDS011;7323;50.848;4.334;2022-12-20T00:03:53;3.90;;;2.33;;
14474;SDS011;7323;50.848;4.334;2022-12-20T00:06:20;4.50;;;2.03;;
14474;SDS011;7323;50.848;4.334;2022-12-20T00:08:51;3.43;;;2.20;;
14474;SDS011;7323;50.848;4.334;2022-12-20T00:11:18;3.37;;;2.10;;
14474;SDS011;7323;50.848;4.334;2022-12-20T00:13:47;3.00;;;1.90;;
14474;SDS011;7323;50.848;4.334;2022-12-20T00:16:14;3.23;;;2.00;;
14474;SDS011;7323;50.848;4.334;2022-12-20T00:18:42;4.07;;;2.00;;
14474;SDS011;7323;50.848;4.334;2022-12-20T00:21:10;3.20;;;1.80;;
14474;SDS011;7323;50.848;4.334;2022-12-20T00:23:37;3.10;;;2.13;;
14474;SDS011;7323;50.848;4.334;2022-12-20T00:26:05;2.97;;;2.00;;
14474;SDS011;7323;50.848;4.334;2022-12-20T00:28:42;3.07;;;2.07;;
14474;SDS011;7323;50.848;4.334;2022-12-20T00:31:09;5.43;;;2.03;;
14474;SDS011;7323;50.848;4.334;2022-12-20T00:33:36;2.77;;;1.90;;
14474;SDS011;7323;50.848;4.334;2022-12-20T00:36:03;4.03;;;1.90;;
14474;SDS011;7323;50.848;4.334;2022-12-20T00:38:30;4.47;;;1.93;;
14474;SDS011;7323;50.848;4.334;2022-12-20T00:41:03;3.47;;;1.97;;
14474;SDS011;7323;50.848;4.334;2022-12-20T00:43:37;3.53;;;2.03;;
14474;SDS011;7323;50.848;4.334;2022-12-20T00:46:03;4.80;;;2.27;;
14474;SDS011;7323;50.848;4.334;2022-12-20T00:48:30;3.67;;;2.37;;
14474;SDS011;7323;50.848;4.334;2022-12-20T00:51:04;3.10;;;2.13;;
14474;SDS011;7323;50.848;4.334;2022-12-20T00:53:49;5.37;;;2.20;;
14474;SDS011;7323;50.848;4.334;2022-12-20T00:56:15;4.67;;;1.90;;
14474;SDS011;7323;50.848;4.334;2022-12-20T00:58:41;3.17;;;1.87;;
14474;SDS011;7323;50.848;4.334;2022-12-20T01:01:17;4.50;;;2.50;;
14474;SDS011;7323;50.848;4.334;2022-12-20T01:03:46;2.67;;;1.87;;
14474;SDS011;7323;50.848;4.334;2022-12-20T01:06:12;6.07;;;2.10;;
14474;SDS011;7323;50.848;4.334;2022-12-20T01:08:38;3.50;;;2.00;;
14474;SDS011;7323;50.848;4.334;2022-12-20T01:11:37;6.40;;;2.23;;
14474;SDS011;7323;50.848;4.334;2022-12-20T01:13:58;3.37;;;1.97;;
14474;SDS011;7323;50.848;4.334;2022-12-20T01:16:31;4.10;;;1.83;;
14474;SDS011;7323;50.848;4.334;2022-12-20T01:19:02;3.90;;;2.20;;
14474;SDS011;7323;50.848;4.334;2022-12-20T01:21:29;3.40;;;1.90;;
14474;SDS011;7323;50.848;4.334;2022-12-20T01:23:55;3.87;;;2.27;;
14474;SDS011;7323;50.848;4.334;2022-12-20T01:26:22;4.10;;;2.50;;
14474;SDS011;7323;50.848;4.334;2022-12-20T01:28:57;4.07;;;2.30;;
14474;SDS011;7323;50.848;4.334;2022-12-20T01:31:25;5.03;;;2.10;;
14474;SDS011;7323;50.848;4.334;2022-12-20T01:36:28;5.20;;;2.37;;
14474;SDS011;7323;50.848;4.334;2022-12-20T01:39:00;5.03;;;2.70;;
14474;SDS011;7323;50.848;4.334;2022-12-20T01:41:30;4.03;;;2.07;;
14474;SDS011;7323;50.848;4.334;2022-12-20T01:43:58;4.80;;;2.27;;
14474;SDS011;7323;50.848;4.334;2022-12-20T01:46:27;6.20;;;2.07;;
14474;SDS011;7323;50.848;4.334;2022-12-20T01:49:13;5.27;;;2.27;;
14474;SDS011;7323;50.848;4.334;2022-12-20T01:51:51;3.93;;;2.43;;
14474;SDS011;7323;50.848;4.334;2022-12-20T01:54:23;4.80;;;2.50;;
14474;SDS011;7323;50.848;4.334;2022-12-20T01:57:03;5.30;;;2.47;;
14474;SDS011;7323;50.848;4.334;2022-12-20T01:59:32;5.77;;;2.40;;
14474;SDS011;7323;50.848;4.334;2022-12-20T02:02:02;3.63;;;2.10;;
14474;SDS011;7323;50.848;4.334;2022-12-20T02:04:31;4.10;;;2.00;;
14474;SDS011;7323;50.848;4.334;2022-12-20T02:06:57;3.70;;;2.20;;
14474;SDS011;7323;50.848;4.334;2022-12-20T02:09:24;5.43;;;2.20;;
14474;SDS011;7323;50.848;4.334;2022-12-20T02:14:54;3.77;;;2.30;;
14474;SDS011;7323;50.848;4.334;2022-12-20T02:17:30;3.60;;;2.17;;
14474;SDS011;7323;50.848;4.334;2022-12-20T02:34:22;3.33;;;2.07;;
14474;SDS011;7323;50.848;4.334;2022-12-20T02:36:50;3.70;;;2.20;;
14474;SDS011;7323;50.848;4.334;2022-12-20T02:39:16;3.57;;;2.27;;
14474;SDS011;7323;50.848;4.334;2022-12-20T02:42:04;4.03;;;2.20;;
14474;SDS011;7323;50.848;4.334;2022-12-20T02:44:36;3.77;;;2.67;;
14474;SDS011;7323;50.848;4.334;2022-12-20T02:47:27;3.67;;;2.33;;
14474;SDS011;7323;50.848;4.334;2022-12-20T02:49:57;4.43;;;2.10;;
14474;SDS011;7323;50.848;4.334;2022-12-20T02:52:24;6.37;;;2.33;;
14474;SDS011;7323;50.848;4.334;2022-12-20T02:54:55;4.03;;;2.20;;
14474;SDS011;7323;50.848;4.334;2022-12-20T03:00:19;3.83;;;1.70;;
14474;SDS011;7323;50.848;4.334;2022-12-20T03:02:47;4.57;;;2.03;;
14474;SDS011;7323;50.848;4.334;2022-12-20T03:05:43;4.33;;;1.90;;
14474;SDS011;7323;50.848;4.334;2022-12-20T03:08:11;4.30;;;2.40;;
14474;SDS011;7323;50.848;4.334;2022-12-20T03:10:36;3.47;;;2.30;;
14474;SDS011;7323;50.848;4.334;2022-12-20T03:13:03;2.90;;;2.10;;
14474;SDS011;7323;50.848;4.334;2022-12-20T03:15:28;4.43;;;2.30;;
14474;SDS011;7323;50.848;4.334;2022-12-20T03:17:54;4.63;;;2.40;;
14474;SDS011;7323;50.848;4.334;2022-12-20T03:20:20;3.70;;;1.87;;
14474;SDS011;7323;50.848;4.334;2022-12-20T03:22:46;5.10;;;2.00;;
14474;SDS011;7323;50.848;4.334;2022-12-20T03:25:12;4.00;;;2.20;;
14474;SDS011;7323;50.848;4.334;2022-12-20T03:27:37;7.37;;;2.10;;
14474;SDS011;7323;50.848;4.334;2022-12-20T03:30:03;2.53;;;1.90;;
14474;SDS011;7323;50.848;4.334;2022-12-20T03:32:30;2.60;;;1.80;;
14474;SDS011;7323;50.848;4.334;2022-12-20T03:34:55;3.77;;;1.87;;
14474;SDS011;7323;50.848;4.334;2022-12-20T03:37:21;3.97;;;2.10;;
14474;SDS011;7323;50.848;4.334;2022-12-20T03:39:47;3.30;;;2.03;;
14474;SDS011;7323;50.848;4.334;2022-12-20T03:42:13;3.17;;;2.00;;
14474;SDS011;7323;50.848;4.334;2022-12-20T03:44:40;4.63;;;2.03;;
14474;SDS011;7323;50.848;4.334;2022-12-20T03:47:06;3.57;;;1.83;;
14474;SDS011;7323;50.848;4.334;2022-12-20T03:52:13;3.73;;;2.20;;
14474;SDS011;7323;50.848;4.334;2022-12-20T03:54:39;3.33;;;1.70;;
14474;SDS011;7323;50.848;4.334;2022-12-20T03:57:05;5.07;;;2.07;;
14474;SDS011;7323;50.848;4.334;2022-12-20T03:59:31;7.73;;;2.20;;
14474;SDS011;7323;50.848;4.334;2022-12-20T04:01:56;4.67;;;1.97;;
14474;SDS011;7323;50.848;4.334;2022-12-20T04:04:22;5.73;;;2.40;;
14474;SDS011;7323;50.848;4.334;2022-12-20T04:06:48;3.47;;;1.97;;
14474;SDS011;7323;50.848;4.334;2022-12-20T04:09:14;4.63;;;2.20;;
14474;SDS011;7323;50.848;4.334;2022-12-20T04:11:39;5.00;;;2.10;;
14474;SDS011;7323;50.848;4.334;2022-12-20T04:14:05;3.37;;;2.17;;
14474;SDS011;7323;50.848;4.334;2022-12-20T04:16:31;3.07;;;1.80;;
14474;SDS011;7323;50.848;4.334;2022-12-20T04:18:58;4.23;;;1.90;;
14474;SDS011;7323;50.848;4.334;2022-12-20T04:21:28;4.30;;;1.97;;
14474;SDS011;7323;50.848;4.334;2022-12-20T04:23:56;3.00;;;1.90;;
14474;SDS011;7323;50.848;4.334;2022-12-20T04:26:24;4.17;;;2.07;;
14474;SDS011;7323;50.848;4.334;2022-12-20T04:28:50;4.23;;;2.17;;
14474;SDS011;7323;50.848;4.334;2022-12-20T04:31:15;3.10;;;1.90;;
14474;SDS011;7323;50.848;4.334;2022-12-20T04:33:41;3.70;;;1.83;;
14474;SDS011;7323;50.848;4.334;2022-12-20T04:36:08;3.53;;;1.90;;
14474;SDS011;7323;50.848;4.334;2022-12-20T04:38:34;3.00;;;1.70;;
14474;SDS011;7323;50.848;4.334;2022-12-20T04:43:52;3.73;;;1.70;;
14474;SDS011;7323;50.848;4.334;2022-12-20T04:46:22;3.57;;;1.80;;
14474;SDS011;7323;50.848;4.334;2022-12-20T04:48:49;4.47;;;1.90;;
14474;SDS011;7323;50.848;4.334;2022-12-20T04:51:15;4.77;;;1.83;;
14474;SDS011;7323;50.848;4.334;2022-12-20T04:53:42;2.70;;;1.57;;
14474;SDS011;7323;50.848;4.334;2022-12-20T04:56:15;4.07;;;2.00;;
14474;SDS011;7323;50.848;4.334;2022-12-20T04:58:43;3.87;;;1.90;;
14474;SDS011;7323;50.848;4.334;2022-12-20T05:01:09;4.63;;;1.67;;
14474;SDS011;7323;50.848;4.334;2022-12-20T05:03:35;5.83;;;2.00;;
14474;SDS011;7323;50.848;4.334;2022-12-20T05:06:01;4.83;;;2.10;;
14474;SDS011;7323;50.848;4.334;2022-12-20T05:08:27;2.27;;;1.47;;
14474;SDS011;7323;50.848;4.334;2022-12-20T05:10:54;2.87;;;1.50;;
14474;SDS011;7323;50.848;4.334;2022-12-20T05:13:20;3.37;;;1.57;;
14474;SDS011;7323;50.848;4.334;2022-12-20T05:15:49;2.80;;;1.43;;
14474;SDS011;7323;50.848;4.334;2022-12-20T05:18:16;4.20;;;1.70;;
14474;SDS011;7323;50.848;4.334;2022-12-20T05:20:41;2.93;;;1.73;;
14474;SDS011;7323;50.848;4.334;2022-12-20T05:23:08;3.97;;;1.83;;
14474;SDS011;7323;50.848;4.334;2022-12-20T05:25:53;3.07;;;1.67;;
14474;SDS011;7323;50.848;4.334;2022-12-20T05:28:38;3.57;;;1.80;;
14474;SDS011;7323;50.848;4.334;2022-12-20T05:31:04;3.13;;;1.43;;
14474;SDS011;7323;50.848;4.334;2022-12-20T05:33:30;4.40;;;1.83;;
14474;SDS011;7323;50.848;4.334;2022-12-20T05:35:58;4.47;;;1.90;;
14474;SDS011;7323;50.848;4.334;2022-12-20T05:38:24;3.57;;;1.70;;
14474;SDS011;7323;50.848;4.334;2022-12-20T05:40:50;4.20;;;1.60;;
14474;SDS011;7323;50.848;4.334;2022-12-20T05:43:19;3.17;;;1.60;;
14474;SDS011;7323;50.848;4.334;2022-12-20T05:45:46;2.40;;;1.43;;
14474;SDS011;7323;50.848;4.334;2022-12-20T05:48:13;3.67;;;1.77;;
14474;SDS011;7323;50.848;4.334;2022-12-20T05:50:46;2.83;;;1.60;;
14474;SDS011;7323;50.848;4.334;2022-12-20T05:53:12;5.20;;;1.83;;
14474;SDS011;7323;50.848;4.334;2022-12-20T05:55:43;4.33;;;1.53;;
14474;SDS011;7323;50.848;4.334;2022-12-20T05:58:12;2.70;;;1.40;;
14474;SDS011;7323;50.848;4.334;2022-12-20T06:00:38;3.40;;;1.33;;
14474;SDS011;7323;50.848;4.334;2022-12-20T06:03:05;3.07;;;1.60;;
14474;SDS011;7323;50.848;4.334;2022-12-20T06:05:33;5.20;;;1.57;;
14474;SDS011;7323;50.848;4.334;2022-12-20T06:08:02;4.33;;;1.63;;
14474;SDS011;7323;50.848;4.334;2022-12-20T06:10:31;3.70;;;1.87;;
14474;SDS011;7323;50.848;4.334;2022-12-20T06:12:59;4.07;;;1.60;;
14474;SDS011;7323;50.848;4.334;2022-12-20T06:15:28;2.83;;;1.50;;
14474;SDS011;7323;50.848;4.334;2022-12-20T06:17:55;2.53;;;1.40;;
14474;SDS011;7323;50.848;4.334;2022-12-20T06:20:21;3.03;;;1.60;;
14474;SDS011;7323;50.848;4.334;2022-12-20T06:22:46;2.53;;;1.53;;
14474;SDS011;7323;50.848;4.334;2022-12-20T06:25:12;2.10;;;1.10;;
14474;SDS011;7323;50.848;4.334;2022-12-20T06:27:39;2.13;;;1.47;;
14474;SDS011;7323;50.848;4.334;2022-12-20T06:30:06;3.10;;;1.40;;
14474;SDS011;7323;50.848;4.334;2022-12-20T06:32:32;2.00;;;1.37;;
14474;SDS011;7323;50.848;4.334;2022-12-20T06:34:58;2.40;;;1.40;;
14474;SDS011;7323;50.848;4.334;2022-12-20T06:37:24;4.27;;;1.67;;
14474;SDS011;7323;50.848;4.334;2022-12-20T06:39:49;3.53;;;1.60;;
14474;SDS011;7323;50.848;4.334;2022-12-20T06:42:15;2.97;;;1.27;;
14474;SDS011;7323;50.848;4.334;2022-12-20T06:44:43;2.27;;;1.30;;
14474;SDS011;7323;50.848;4.334;2022-12-20T06:47:09;2.50;;;1.43;;
14474;SDS011;7323;50.848;4.334;2022-12-20T06:49:37;3.00;;;1.37;;
14474;SDS011;7323;50.848;4.334;2022-12-20T06:52:02;3.63;;;1.23;;
14474;SDS011;7323;50.848;4.334;2022-12-20T06:54:28;3.07;;;1.40;;
14474;SDS011;7323;50.848;4.334;2022-12-20T06:56:56;3.73;;;1.60;;
14474;SDS011;7323;50.848;4.334;2022-12-20T06:59:25;2.83;;;1.40;;
14474;SDS011;7323;50.848;4.334;2022-12-20T07:01:51;4.57;;;1.50;;
14474;SDS011;7323;50.848;4.334;2022-12-20T07:04:16;3.97;;;1.30;;
14474;SDS011;7323;50.848;4.334;2022-12-20T07:06:42;3.47;;;1.43;;
14474;SDS011;7323;50.848;4.334;2022-12-20T07:09:10;3.30;;;1.40;;
14474;SDS011;7323;50.848;4.334;2022-12-20T07:11:36;3.83;;;1.80;;
14474;SDS011;7323;50.848;4.334;2022-12-20T07:14:03;4.03;;;1.63;;
14474;SDS011;7323;50.848;4.334;2022-12-20T07:16:29;4.50;;;1.73;;
14474;SDS011;7323;50.848;4.334;2022-12-20T07:18:57;4.10;;;1.70;;
14474;SDS011;7323;50.848;4.334;2022-12-20T07:21:24;4.60;;;1.73;;
14474;SDS011;7323;50.848;4.334;2022-12-20T07:23:49;4.73;;;1.63;;
14474;SDS011;7323;50.848;4.334;2022-12-20T07:26:15;3.80;;;1.70;;
14474;SDS011;7323;50.848;4.334;2022-12-20T07:28:41;2.70;;;1.50;;
14474;SDS011;7323;50.848;4.334;2022-12-20T07:31:09;5.27;;;1.60;;
14474;SDS011;7323;50.848;4.334;2022-12-20T07:33:38;4.43;;;1.80;;
14474;SDS011;7323;50.848;4.334;2022-12-20T07:36:06;4.33;;;2.10;;
14474;SDS011;7323;50.848;4.334;2022-12-20T07:38:35;4.10;;;1.93;;
14474;SDS011;7323;50.848;4.334;2022-12-20T07:41:08;6.97;;;2.20;;
14474;SDS011;7323;50.848;4.334;2022-12-20T07:43:34;4.13;;;1.80;;
14474;SDS011;7323;50.848;4.334;2022-12-20T07:46:00;5.83;;;2.20;;
14474;SDS011;7323;50.848;4.334;2022-12-20T07:48:26;5.73;;;2.00;;
14474;SDS011;7323;50.848;4.334;2022-12-20T07:50:52;3.80;;;1.87;;
14474;SDS011;7323;50.848;4.334;2022-12-20T07:53:21;5.10;;;1.80;;
14474;SDS011;7323;50.848;4.334;2022-12-20T07:55:50;5.00;;;2.10;;
14474;SDS011;7323;50.848;4.334;2022-12-20T07:58:18;4.23;;;2.07;;
14474;SDS011;7323;50.848;4.334;2022-12-20T08:00:45;5.37;;;2.10;;
14474;SDS011;7323;50.848;4.334;2022-12-20T08:03:12;5.73;;;2.20;;
14474;SDS011;7323;50.848;4.334;2022-12-20T08:05:41;7.37;;;2.07;;
14474;SDS011;7323;50.848;4.334;2022-12-20T08:08:14;4.47;;;2.10;;
14474;SDS011;7323;50.848;4.334;2022-12-20T08:10:43;5.43;;;2.17;;
14474;SDS011;7323;50.848;4.334;2022-12-20T08:13:12;4.60;;;1.80;;
14474;SDS011;7323;50.848;4.334;2022-12-20T08:15:47;5.17;;;2.17;;
14474;SDS011;7323;50.848;4.334;2022-12-20T08:18:13;6.63;;;2.00;;
14474;SDS011;7323;50.848;4.334;2022-12-20T08:20:41;4.30;;;2.10;;
14474;SDS011;7323;50.848;4.334;2022-12-20T08:23:06;4.13;;;2.30;;
14474;SDS011;7323;50.848;4.334;2022-12-20T08:25:38;6.00;;;2.33;;
14474;SDS011;7323;50.848;4.334;2022-12-20T08:28:15;5.17;;;2.10;;
14474;SDS011;7323;50.848;4.334;2022-12-20T08:30:40;6.60;;;2.10;;
14474;SDS011;7323;50.848;4.334;2022-12-20T08:33:06;3.97;;;2.03;;
14474;SDS011;7323;50.848;4.334;2022-12-20T08:35:32;5.87;;;2.00;;
14474;SDS011;7323;50.848;4.334;2022-12-20T08:37:58;5.00;;;2.10;;
14474;SDS011;7323;50.848;4.334;2022-12-20T08:40:23;5.23;;;2.03;;
14474;SDS011;7323;50.848;4.334;2022-12-20T08:42:49;5.53;;;1.50;;
14474;SDS011;7323;50.848;4.334;2022-12-20T08:45:15;5.17;;;1.87;;
14474;SDS011;7323;50.848;4.334;2022-12-20T08:47:43;5.97;;;2.00;;
14474;SDS011;7323;50.848;4.334;2022-12-20T08:50:09;4.63;;;2.20;;
14474;SDS011;7323;50.848;4.334;2022-12-20T08:52:35;4.97;;;2.33;;
14474;SDS011;7323;50.848;4.334;2022-12-20T08:55:00;4.20;;;2.13;;
14474;SDS011;7323;50.848;4.334;2022-12-20T08:57:26;5.77;;;2.17;;
14474;SDS011;7323;50.848;4.334;2022-12-20T08:59:52;4.37;;;1.70;;
14474;SDS011;7323;50.848;4.334;2022-12-20T09:02:17;4.43;;;2.23;;
14474;SDS011;7323;50.848;4.334;2022-12-20T09:04:44;5.10;;;1.87;;
14474;SDS011;7323;50.848;4.334;2022-12-20T09:07:11;6.27;;;1.87;;
14474;SDS011;7323;50.848;4.334;2022-12-20T09:09:37;5.10;;;2.00;;
14474;SDS011;7323;50.848;4.334;2022-12-20T09:12:04;4.77;;;2.50;;
14474;SDS011;7323;50.848;4.334;2022-12-20T09:14:31;6.27;;;2.93;;
14474;SDS011;7323;50.848;4.334;2022-12-20T09:16:57;6.73;;;2.20;;
14474;SDS011;7323;50.848;4.334;2022-12-20T09:19:23;6.30;;;2.17;;
14474;SDS011;7323;50.848;4.334;2022-12-20T09:21:51;5.80;;;2.20;;
14474;SDS011;7323;50.848;4.334;2022-12-20T09:24:19;25.70;;;17.07;;
14474;SDS011;7323;50.848;4.334;2022-12-20T09:26:45;6.87;;;3.33;;
14474;SDS011;7323;50.848;4.334;2022-12-20T09:29:11;5.90;;;2.57;;
14474;SDS011;7323;50.848;4.334;2022-12-20T09:31:36;5.33;;;2.50;;
14474;SDS011;7323;50.848;4.334;2022-12-20T09:34:05;5.87;;;2.80;;
14474;SDS011;7323;50.848;4.334;2022-12-20T09:36:31;5.70;;;2.30;;
14474;SDS011;7323;50.848;4.334;2022-12-20T09:43:59;5.83;;;2.57;;
14474;SDS011;7323;50.848;4.334;2022-12-20T09:46:28;7.57;;;2.67;;
14474;SDS011;7323;50.848;4.334;2022-12-20T09:48:55;4.77;;;2.30;;
14474;SDS011;7323;50.848;4.334;2022-12-20T09:51:42;6.33;;;2.50;;
14474;SDS011;7323;50.848;4.334;2022-12-20T09:54:54;5.73;;;2.40;;
14474;SDS011;7323;50.848;4.334;2022-12-20T10:00:23;4.87;;;1.87;;
14474;SDS011;7323;50.848;4.334;2022-12-20T10:02:49;5.87;;;2.20;;
14474;SDS011;7323;50.848;4.334;2022-12-20T10:05:19;6.87;;;2.70;;
14474;SDS011;7323;50.848;4.334;2022-12-20T10:07:54;5.07;;;2.30;;
14474;SDS011;7323;50.848;4.334;2022-12-20T10:13:24;7.70;;;3.17;;
14474;SDS011;7323;50.848;4.334;2022-12-20T10:15:59;3.97;;;2.20;;
14474;SDS011;7323;50.848;4.334;2022-12-20T10:18:45;2.97;;;1.80;;
14474;SDS011;7323;50.848;4.334;2022-12-20T10:21:44;4.40;;;2.20;;
14474;SDS011;7323;50.848;4.334;2022-12-20T10:24:18;5.13;;;2.10;;
14474;SDS011;7323;50.848;4.334;2022-12-20T10:26:49;6.03;;;2.63;;
14474;SDS011;7323;50.848;4.334;2022-12-20T10:29:15;4.87;;;2.23;;
14474;SDS011;7323;50.848;4.334;2022-12-20T10:31:43;3.50;;;2.17;;
14474;SDS011;7323;50.848;4.334;2022-12-20T10:34:09;5.87;;;2.50;;
14474;SDS011;7323;50.848;4.334;2022-12-20T10:36:35;5.57;;;2.60;;
14474;SDS011;7323;50.848;4.334;2022-12-20T10:39:02;5.13;;;3.00;;
14474;SDS011;7323;50.848;4.334;2022-12-20T10:41:32;6.63;;;2.50;;
14474;SDS011;7323;50.848;4.334;2022-12-20T10:44:18;5.60;;;2.90;;
14474;SDS011;7323;50.848;4.334;2022-12-20T10:46:56;5.37;;;2.50;;
14474;SDS011;7323;50.848;4.334;2022-12-20T10:49:31;3.67;;;2.23;;
14474;SDS011;7323;50.848;4.334;2022-12-20T10:51:59;4.33;;;2.60;;
14474;SDS011;7323;50.848;4.334;2022-12-20T10:54:29;4.77;;;2.70;;
14474;SDS011;7323;50.848;4.334;2022-12-20T10:57:20;10.07;;;3.60;;
14474;SDS011;7323;50.848;4.334;2022-12-20T10:59:50;7.70;;;3.23;;
14474;SDS011;7323;50.848;4.334;2022-12-20T11:02:33;6.33;;;3.13;;
14474;SDS011;7323;50.848;4.334;2022-12-20T11:05:09;4.47;;;2.63;;
14474;SDS011;7323;50.848;4.334;2022-12-20T11:07:58;4.70;;;2.77;;
14474;SDS011;7323;50.848;4.334;2022-12-20T11:10:30;5.07;;;3.10;;
14474;SDS011;7323;50.848;4.334;2022-12-20T11:12:59;5.80;;;2.77;;
14474;SDS011;7323;50.848;4.334;2022-12-20T11:15:34;5.13;;;2.83;;
14474;SDS011;7323;50.848;4.334;2022-12-20T11:18:04;6.33;;;2.77;;
14474;SDS011;7323;50.848;4.334;2022-12-20T11:20:44;6.90;;;2.97;;
14474;SDS011;7323;50.848;4.334;2022-12-20T11:23:25;6.40;;;3.20;;
14474;SDS011;7323;50.848;4.334;2022-12-20T11:34:53;5.60;;;2.90;;
14474;SDS011;7323;50.848;4.334;2022-12-20T11:38:01;6.27;;;2.93;;
14474;SDS011;7323;50.848;4.334;2022-12-20T11:40:50;7.90;;;3.00;;
14474;SDS011;7323;50.848;4.334;2022-12-20T11:43:35;10.13;;;3.30;;
14474;SDS011;7323;50.848;4.334;2022-12-20T11:51:52;5.23;;;2.50;;
14474;SDS011;7323;50.848;4.334;2022-12-20T11:54:46;6.13;;;2.73;;
14474;SDS011;7323;50.848;4.334;2022-12-20T11:57:19;6.90;;;2.90;;
14474;SDS011;7323;50.848;4.334;2022-12-20T11:59:51;3.60;;;2.40;;
14474;SDS011;7323;50.848;4.334;2022-12-20T12:02:27;5.77;;;3.43;;
14474;SDS011;7323;50.848;4.334;2022-12-20T12:05:06;6.90;;;3.30;;
14474;SDS011;7323;50.848;4.334;2022-12-20T12:08:00;5.17;;;2.50;;
14474;SDS011;7323;50.848;4.334;2022-12-20T12:10:39;5.90;;;3.03;;
14474;SDS011;7323;50.848;4.334;2022-12-20T12:18:36;6.23;;;2.93;;
14474;SDS011;7323;50.848;4.334;2022-12-20T12:26:20;6.57;;;2.97;;
14474;SDS011;7323;50.848;4.334;2022-12-20T12:28:47;6.67;;;3.17;;
14474;SDS011;7323;50.848;4.334;2022-12-20T12:31:25;8.43;;;3.20;;
14474;SDS011;7323;50.848;4.334;2022-12-20T12:37:05;7.57;;;3.13;;
14474;SDS011;7323;50.848;4.334;2022-12-20T12:39:46;5.13;;;3.20;;
14474;SDS011;7323;50.848;4.334;2022-12-20T12:45:50;9.03;;;4.70;;
14474;SDS011;7323;50.848;4.334;2022-12-20T12:48:25;8.07;;;3.47;;
14474;SDS011;7323;50.848;4.334;2022-12-20T12:51:00;8.80;;;4.30;;
14474;SDS011;7323;50.848;4.334;2022-12-20T12:55:55;6.00;;;3.40;;
14474;SDS011;7323;50.848;4.334;2022-12-20T13:00:53;7.13;;;3.50;;
14474;SDS011;7323;50.848;4.334;2022-12-20T13:11:27;6.33;;;2.83;;
14474;SDS011;7323;50.848;4.334;2022-12-20T13:16:45;5.60;;;3.70;;
14474;SDS011;7323;50.848;4.334;2022-12-20T13:19:39;6.80;;;3.97;;
14474;SDS011;7323;50.848;4.334;2022-12-20T13:27:21;7.20;;;3.70;;
14474;SDS011;7323;50.848;4.334;2022-12-20T13:30:01;6.80;;;3.33;;
14474;SDS011;7323;50.848;4.334;2022-12-20T13:35:47;5.23;;;3.50;;
14474;SDS011;7323;50.848;4.334;2022-12-20T13:41:24;8.90;;;4.20;;
14474;SDS011;7323;50.848;4.334;2022-12-20T13:44:02;6.57;;;3.83;;
14474;SDS011;7323;50.848;4.334;2022-12-20T13:46:53;6.13;;;4.13;;
14474;SDS011;7323;50.848;4.334;2022-12-20T13:49:31;7.60;;;4.10;;
14474;SDS011;7323;50.848;4.334;2022-12-20T13:54:46;8.73;;;4.27;;
14474;SDS011;7323;50.848;4.334;2022-12-20T13:57:18;8.27;;;3.90;;
14474;SDS011;7323;50.848;4.334;2022-12-20T13:59:51;8.20;;;3.70;;
14474;SDS011;7323;50.848;4.334;2022-12-20T14:02:23;5.33;;;3.67;;
14474;SDS011;7323;50.848;4.334;2022-12-20T14:05:13;7.53;;;3.87;;
14474;SDS011;7323;50.848;4.334;2022-12-20T14:08:36;4.93;;;3.90;;
14474;SDS011;7323;50.848;4.334;2022-12-20T14:10:41;8.20;;;4.37;;
14474;SDS011;7323;50.848;4.334;2022-12-20T14:13:18;7.77;;;4.27;;
14474;SDS011;7323;50.848;4.334;2022-12-20T14:18:19;6.63;;;4.30;;
14474;SDS011;7323;50.848;4.334;2022-12-20T14:20:54;7.87;;;5.47;;
14474;SDS011;7323;50.848;4.334;2022-12-20T14:23:25;6.83;;;4.80;;
14474;SDS011;7323;50.848;4.334;2022-12-20T14:26:00;7.10;;;4.47;;
14474;SDS011;7323;50.848;4.334;2022-12-20T14:28:37;7.33;;;4.93;;
14474;SDS011;7323;50.848;4.334;2022-12-20T14:31:19;7.23;;;4.90;;
14474;SDS011;7323;50.848;4.334;2022-12-20T14:36:48;7.60;;;4.70;;
14474;SDS011;7323;50.848;4.334;2022-12-20T14:39:30;8.97;;;4.83;;
14474;SDS011;7323;50.848;4.334;2022-12-20T14:44:38;8.57;;;4.50;;
14474;SDS011;7323;50.848;4.334;2022-12-20T14:47:26;9.47;;;4.70;;
14474;SDS011;7323;50.848;4.334;2022-12-20T14:50:04;8.00;;;4.40;;
14474;SDS011;7323;50.848;4.334;2022-12-20T14:55:53;7.67;;;4.23;;
14474;SDS011;7323;50.848;4.334;2022-12-20T14:58:23;7.40;;;4.47;;
14474;SDS011;7323;50.848;4.334;2022-12-20T15:01:15;7.07;;;4.30;;
14474;SDS011;7323;50.848;4.334;2022-12-20T15:03:56;5.93;;;4.23;;
14474;SDS011;7323;50.848;4.334;2022-12-20T15:09:31;6.83;;;4.40;;
14474;SDS011;7323;50.848;4.334;2022-12-20T15:11:57;5.40;;;4.13;;
14474;SDS011;7323;50.848;4.334;2022-12-20T15:17:13;8.30;;;5.37;;
14474;SDS011;7323;50.848;4.334;2022-12-20T15:19:41;8.33;;;5.20;;
14474;SDS011;7323;50.848;4.334;2022-12-20T15:22:17;12.13;;;6.60;;
14474;SDS011;7323;50.848;4.334;2022-12-20T15:24:44;8.97;;;5.50;;
14474;SDS011;7323;50.848;4.334;2022-12-20T15:27:11;12.00;;;6.20;;
14474;SDS011;7323;50.848;4.334;2022-12-20T15:29:38;10.87;;;5.60;;
14474;SDS011;7323;50.848;4.334;2022-12-20T15:32:04;9.23;;;5.53;;
14474;SDS011;7323;50.848;4.334;2022-12-20T15:34:37;11.23;;;5.77;;
14474;SDS011;7323;50.848;4.334;2022-12-20T15:37:03;7.20;;;5.50;;
14474;SDS011;7323;50.848;4.334;2022-12-20T15:39:30;8.07;;;6.07;;
14474;SDS011;7323;50.848;4.334;2022-12-20T15:42:00;6.47;;;5.77;;
14474;SDS011;7323;50.848;4.334;2022-12-20T15:44:29;8.30;;;5.23;;
14474;SDS011;7323;50.848;4.334;2022-12-20T15:46:56;6.93;;;5.27;;
14474;SDS011;7323;50.848;4.334;2022-12-20T15:49:24;6.43;;;4.33;;
14474;SDS011;7323;50.848;4.334;2022-12-20T15:51:53;5.60;;;4.53;;
14474;SDS011;7323;50.848;4.334;2022-12-20T15:54:32;7.07;;;5.17;;
14474;SDS011;7323;50.848;4.334;2022-12-20T15:59:32;5.90;;;4.30;;
14474;SDS011;7323;50.848;4.334;2022-12-20T16:01:58;5.67;;;3.93;;
14474;SDS011;7323;50.848;4.334;2022-12-20T16:04:24;8.10;;;5.20;;
14474;SDS011;7323;50.848;4.334;2022-12-20T16:06:53;8.27;;;5.30;;
14474;SDS011;7323;50.848;4.334;2022-12-20T16:09:19;5.43;;;4.43;;
14474;SDS011;7323;50.848;4.334;2022-12-20T16:11:45;6.63;;;4.40;;
14474;SDS011;7323;50.848;4.334;2022-12-20T16:16:46;8.17;;;4.93;;
14474;SDS011;7323;50.848;4.334;2022-12-20T16:19:18;6.90;;;4.60;;
14474;SDS011;7323;50.848;4.334;2022-12-20T16:21:48;7.27;;;4.03;;
14474;SDS011;7323;50.848;4.334;2022-12-20T16:24:17;6.77;;;4.87;;
14474;SDS011;7323;50.848;4.334;2022-12-20T16:26:44;7.73;;;4.70;;
14474;SDS011;7323;50.848;4.334;2022-12-20T16:29:12;8.50;;;6.20;;
14474;SDS011;7323;50.848;4.334;2022-12-20T16:31:39;6.40;;;5.27;;
14474;SDS011;7323;50.848;4.334;2022-12-20T16:34:09;6.83;;;4.90;;
14474;SDS011;7323;50.848;4.334;2022-12-20T16:36:37;7.83;;;6.03;;
14474;SDS011;7323;50.848;4.334;2022-12-20T16:39:06;7.43;;;5.27;;
14474;SDS011;7323;50.848;4.334;2022-12-20T16:41:34;8.23;;;5.53;;
14474;SDS011;7323;50.848;4.334;2022-12-20T16:44:01;8.83;;;5.80;;
14474;SDS011;7323;50.848;4.334;2022-12-20T16:46:29;8.07;;;5.20;;
14474;SDS011;7323;50.848;4.334;2022-12-20T16:48:57;7.50;;;5.70;;
14474;SDS011;7323;50.848;4.334;2022-12-20T16:53:54;7.87;;;6.43;;
14474;SDS011;7323;50.848;4.334;2022-12-20T16:56:21;8.43;;;5.70;;
14474;SDS011;7323;50.848;4.334;2022-12-20T16:58:47;8.50;;;5.87;;
14474;SDS011;7323;50.848;4.334;2022-12-20T17:01:20;7.73;;;6.13;;
14474;SDS011;7323;50.848;4.334;2022-12-20T17:03:52;6.03;;;4.97;;
14474;SDS011;7323;50.848;4.334;2022-12-20T17:06:22;7.43;;;5.50;;
14474;SDS011;7323;50.848;4.334;2022-12-20T17:08:47;10.40;;;6.10;;
14474;SDS011;7323;50.848;4.334;2022-12-20T17:11:14;7.47;;;5.30;;
14474;SDS011;7323;50.848;4.334;2022-12-20T17:13:45;7.13;;;5.47;;
14474;SDS011;7323;50.848;4.334;2022-12-20T17:16:12;5.90;;;5.20;;
14474;SDS011;7323;50.848;4.334;2022-12-20T17:18:39;9.13;;;5.63;;
14474;SDS011;7323;50.848;4.334;2022-12-20T17:23:49;12.73;;;7.20;;
14474;SDS011;7323;50.848;4.334;2022-12-20T17:26:16;9.97;;;6.33;;
14474;SDS011;7323;50.848;4.334;2022-12-20T17:28:45;6.63;;;5.47;;